METAR Data
IDs: Format: Raw Decoded Include TAF

Data at: 1224 UTC 17 Sep 2019

KCWF 171153Z 08007KT 7SM OVC003 25/24 A2996
KCWF 171100Z 08007KT 6SM BR OVC003 24/24 A2995
KCWF 171035Z AUTO 08007KT 7SM OVC005 24/24 A2994 RMK AO2 LTG DSNT S T02420237
KCWF 171015Z AUTO 08006KT 10SM OVC005 24/24 A2994 RMK AO2 T02410236
KCWF 170955Z AUTO 07006KT 10SM BKN005 24/23 A2994 RMK AO2 T02400235
KCWF 170935Z AUTO 08005KT 10SM SCT005 24/23 A2993 RMK AO2 T02400235
KCWF 170915Z AUTO 08006KT 10SM CLR 24/23 A2993 RMK AO2 LTG DSNT S T02400235
KCWF 170855Z AUTO 08006KT 10SM CLR 24/23 A2993 RMK AO2 LTG DSNT S T02400235
KCWF 170835Z AUTO 07004KT 10SM CLR 24/23 A2993 RMK AO2 LTG DSNT S T02400235
KCWF 170810Z AUTO 08005KT 10SM CLR 24/24 A2994 RMK AO2 T02410236
KCWF 170755Z AUTO 08004KT 10SM CLR 24/24 A2994 RMK AO2 T02410236
KCWF 170735Z AUTO 08004KT 10SM CLR 24/24 A2994 RMK AO2 T02410236
KCWF 170715Z AUTO 09004KT 10SM CLR 24/23 A2995 RMK AO2 T02410234
KCWF 170655Z AUTO 09005KT 10SM CLR 24/23 A2995 RMK AO2 T02420235
KCWF 170635Z AUTO 09005KT 10SM CLR 24/23 A2995 RMK AO2 T02410235
KCWF 170615Z AUTO 09005KT 10SM CLR 24/23 A2995 RMK AO2 T02430235
KCWF 170555Z AUTO 08005KT 10SM CLR 24/23 A2996 RMK AO2 T02420235 10275 20242 403220236
KCWF 170535Z AUTO 09005KT 10SM CLR 24/23 A2996 RMK AO2 T02430235
KCWF 170515Z AUTO 09005KT 10SM CLR 24/23 A2996 RMK AO2 T02450235
KCWF 170455Z AUTO 08004KT 10SM CLR 24/24 A2996 RMK AO2 T02450236
KCWF 170435Z AUTO 08003KT 10SM CLR 24/23 A2996 RMK AO2 T02450235
KCWF 170415Z AUTO 08004KT 10SM CLR 24/23 A2996 RMK AO2 T02430235
KCWF 170355Z AUTO 08004KT 10SM SCT024 24/23 A2997 RMK AO2 T02430235
KCWF 170335Z AUTO 09004KT 10SM SCT024 24/23 A2997 RMK AO2 LTG DSNT S T02420235
KCWF 170315Z AUTO 08004KT 10SM CLR 24/23 A2997 RMK AO2 T02450235
KCWF 170250Z 09004KT 10SM SKC 24/23 A2997 RMK LAST
KCWF 170150Z 09005KT 10SM OVC020 25/24 A2996
KCWF 170050Z 07005KT 10SM SCT025 26/24 A2996
KCWF 162350Z 09005KT 10SM SKC 28/24 A2995
KCWF 162250Z 10010G18KT 10SM SCT023 29/24 A2995
KCWF 162150Z 08005G18KT 10SM SCT021 BKN035 27/24 A2996
KCWF 162050Z 09015G19KT 10SM FEW025 BKN100 26/23 A2998
KCWF 161950Z 09010G17KT 10SM SCT042 BKN090 24/22 A2999 RMK RAE10
KCWF 161850Z 13020G30KT 6SM -RA SCT030 BKN043 27/24 A3000 RMK RAB40
KCWF 161750Z COR 09014G19KT 10SM BKN040 32/22 A2999
KCWF 161650Z 08011G17KT 10SM BKN043 32/22 A3001
KCWF 161548Z 06011G19KT 10SM SKC 31/23 A3002
KCWF 161445Z 05011KT 10SM SKC 29/23 A3002
KCWF 161350Z 04007KT 10SM SKC 27/22 A3001
KCWF 161250Z 03007G14KT 10SM SKC 24/22 A3001
KCWF 161147Z 03007KT 10SM SKC 24/22 A2999
KCWF 161100Z 02010KT 10SM SKC 24/22 A2999
KCWF 161035Z AUTO 02010KT 10SM CLR 24/23 A2998 RMK AO2 LTG DSNT SE T02400225
KCWF 161015Z AUTO 03003KT 7SM CLR 24/23 A2998 RMK AO2 T02400228
KCWF 160955Z AUTO 02006KT 10SM CLR 24/23 A2998 RMK AO2 T02400230
KCWF 160935Z AUTO 02005KT 10SM CLR 24/23 A2998 RMK AO2 T02400230
KCWF 160915Z AUTO 02004KT 10SM CLR 24/23 A2998 RMK AO2 LTG DSNT SE T02400230
KCWF 160855Z AUTO 02004KT 7SM CLR 24/23 A2998 RMK AO2 LTG DSNT SE T02400230
KCWF 160835Z AUTO 01004KT 10SM CLR 24/23 A2999 RMK AO2 LTG DSNT S T02410230
KCWF 160815Z AUTO 02004KT 7SM CLR 24/23 A2999 RMK AO2 T02410229
KCWF 160755Z AUTO 00000KT 7SM CLR 24/23 A2999 RMK AO2 LTG DSNT S T02400227
KCWF 160735Z AUTO 00000KT 7SM CLR 24/23 A3000 RMK AO2 T02410228
KCWF 160715Z AUTO 02003KT 10SM CLR 24/23 A2999 RMK AO2 T02420228
KCWF 160655Z AUTO 02003KT 10SM CLR 24/23 A3000 RMK AO2 T02420227
KCWF 160635Z AUTO 00000KT 10SM CLR 24/22 A3000 RMK AO2 T02430225
KCWF 160615Z AUTO 00000KT 10SM CLR 24/22 A3001 RMK AO2 T02400223
KCWF 160555Z AUTO 09003KT 10SM CLR 24/22 A3001 RMK AO2 T02400222 10306 20240 403460225
KCWF 160535Z AUTO 00000KT 10SM CLR 25/22 A3001 RMK AO2 LTG DSNT SE T02460225
KCWF 160515Z AUTO 00000KT 10SM CLR 25/22 A3001 RMK AO2 T02520220
KCWF 160455Z AUTO 00000KT 10SM CLR 25/22 A3001 RMK AO2 T02470222
KCWF 160435Z AUTO 00000KT 7SM CLR 25/23 A3000 RMK AO2 T02500227
KCWF 160415Z AUTO 00000KT 7SM CLR 25/23 A3000 RMK AO2 T02500226
KCWF 160355Z AUTO 00000KT 10SM CLR 25/22 A3000 RMK AO2 T02520225
KCWF 160335Z AUTO 00000KT 10SM SCT065 25/22 A3000 RMK AO2 T02470225
KCWF 160315Z AUTO 11007KT 10SM SCT065 25/22 A3000 RMK AO2 T02530224
KCWF 160250Z 00000KT 10SM SKC 26/22 A3000 RMK LAST
KCWF 160150Z 00000KT 10SM SKC 26/22 A2998
KCWF 160050Z 07003KT 10SM SKC 29/22 A2997